Fedora — SLKU — position and weather

sailwx.info

Track history (hours):
 
Tides and Currents Weather Stations Pressure Air Temp Water Temp Dewpoint Dewpoint Depression Visibility Wind Speed Wind Dir Waves Ship Positions

Fedora

Last reported at 2014-Jul-20 15:04 UTC. Time now 2014-Jul-24 10:46 UTC.
Position N 36°60' E 126°02'.

Length 228 m; draft 8.9 m.

Type: Cargo ship. MMSI: 266259000.

Date/timePositionNaut miles runAvg speedWind from/ knotsBaromVisibWave heightAir tempDewpointWater temp
2014-Jul-20 15:04N 36°60' E 126°02'9 3.3
2014-Jul-20 12:17N 37°07' E 126°09'109 2.8
2014-Jul-18 21:25N 37°30' E 123°55'1314.8
2014-Jul-18 20:33N 37°35' E 123°40'1414.6
2014-Jul-18 19:33N 37°41' E 123°23'1414.1
2014-Jul-18 18:33N 37°46' E 123°07'1413.8
2014-Jul-18 17:33N 37°52' E 122°51'1413.8
2014-Jul-18 16:33N 37°58' E 122°35'1413.9
2014-Jul-18 15:33N 38°03' E 122°19'1414.0
2014-Jul-18 14:33N 38°09' E 122°03'1714.1
2014-Jul-18 13:19N 38°16' E 121°43'15814.3
2014-Jul-18 02:17N 38°49' E 118°25'1115.4
2014-Jul-18 01:33N 38°52' E 118°11'1313.5
2014-Jul-18 00:33N 38°57' E 117°55'8 8.0
2014-Jul-17 23:32N 39°01' E 117°46'0 0.0
2014-Jul-17 22:32N 39°01' E 117°46'0 0.0
2014-Jul-17 21:32N 39°01' E 117°46'0 0.0
2014-Jul-17 20:32N 39°01' E 117°46'0 0.0
2014-Jul-17 19:32N 39°01' E 117°46'0 0.0
2014-Jul-17 18:32N 39°01' E 117°46'0 0.0
2014-Jul-17 17:32N 39°01' E 117°46'0 0.0
2014-Jul-17 16:32N 39°01' E 117°46'0 0.0
2014-Jul-17 15:29N 39°01' E 117°46'0 0.0
2014-Jul-17 14:32N 39°01' E 117°46'0 0.0
2014-Jul-17 13:33N 39°01' E 117°46'5 5.0
2014-Jul-17 12:33N 38°58' E 117°51'1110.6
2014-Jul-17 11:33N 38°56' E 118°04'4 4.0
2014-Jul-17 10:33N 38°55' E 118°09'7 6.6
2014-Jul-17 09:33N 38°52' E 118°17'3 2.9
2014-Jul-17 08:33N 38°51' E 118°20'4 4.0
2014-Jul-17 07:33N 38°51' E 118°25'7 7.1
2014-Jul-17 06:33N 38°50' E 118°34'7 6.5
2014-Jul-17 05:33N 38°49' E 118°42'12010.0
2014-Jul-16 17:32N 38°29' E 121°14'1414.1
2014-Jul-16 16:33N 38°22' E 121°30'2713.5
2014-Jul-16 14:33N 38°06' E 121°58'1414.2
2014-Jul-16 13:32N 37°58' E 122°12'3115.3
2014-Jul-16 11:31N 37°38' E 122°43'3114.4
2014-Jul-16 09:21N 37°10' E 123°00'  
2014-Jul-13 10:28N 34°49' E 139°16'1415.3
2014-Jul-13 09:33N 34°57' E 139°30'1616.2
2014-Jul-13 08:33N 35°08' E 139°44'1111.5
2014-Jul-13 07:33N 35°19' E 139°43'9 8.5
2014-Jul-13 06:33N 35°28' E 139°42'0 0.2
2014-Jul-13 05:31N 35°28' E 139°41'0 0.0
2014-Jul-13 04:31N 35°28' E 139°41'0 0.0
2014-Jul-13 03:31N 35°28' E 139°41'0 0.0
2014-Jul-13 02:31N 35°28' E 139°41'0 0.0
2014-Jul-13 01:31N 35°28' E 139°41'0 0.0
2014-Jul-13 00:31N 35°28' E 139°41'2 2.0
2014-Jul-12 23:33N 35°27' E 139°43'9 9.1
2014-Jul-12 22:33N 35°18' E 139°45'1110.7
2014-Jul-12 21:33N 35°07' E 139°45'9 9.4
2014-Jul-12 20:33N 34°58' E 139°42'1110.6
2014-Jul-12 19:33N 34°51' E 139°51'1312.7
2014-Jul-12 18:33N 34°55' E 140°06'1313.3
2014-Jul-12 17:33N 35°01' E 140°20'1212.5
2014-Jul-12 16:33N 35°07' E 140°34'1212.1
2014-Jul-12 15:33N 35°14' E 140°46'1413.6
2014-Jul-12 14:32N 35°27' E 140°52'1414.0
2014-Jul-12 13:33N 35°39' E 140°59'1413.6
2014-Jul-12 12:33N 35°52' E 141°03'1413.5
2014-Jul-12 11:33N 36°05' E 141°09'1414.1
2014-Jul-12 10:33N 36°18' E 141°15'  
Track history (hours):
 
Tides and Currents Weather Stations Pressure Air Temp Water Temp Dewpoint Dewpoint Depression Visibility Wind Speed Wind Dir Waves Ship Positions

Fedora

Last reported at 2014-Jul-20 15:04 UTC. Time now 2014-Jul-24 10:46 UTC.
Position N 36°60' E 126°02'.

Length 228 m; draft 8.9 m.

Type: Cargo ship. MMSI: 266259000.

Date/timePositionNaut miles runAvg speedWind from/ knotsBaromVisibWave heightAir tempDewpointWater temp
2014-Jul-20 15:04N 36°60' E 126°02'9 3.3
2014-Jul-20 12:17N 37°07' E 126°09'109 2.8
2014-Jul-18 21:25N 37°30' E 123°55'1314.8
2014-Jul-18 20:33N 37°35' E 123°40'1414.6
2014-Jul-18 19:33N 37°41' E 123°23'1414.1
2014-Jul-18 18:33N 37°46' E 123°07'1413.8
2014-Jul-18 17:33N 37°52' E 122°51'1413.8
2014-Jul-18 16:33N 37°58' E 122°35'1413.9
2014-Jul-18 15:33N 38°03' E 122°19'1414.0
2014-Jul-18 14:33N 38°09' E 122°03'1714.1
2014-Jul-18 13:19N 38°16' E 121°43'15814.3
2014-Jul-18 02:17N 38°49' E 118°25'1115.4
2014-Jul-18 01:33N 38°52' E 118°11'1313.5
2014-Jul-18 00:33N 38°57' E 117°55'8 8.0
2014-Jul-17 23:32N 39°01' E 117°46'0 0.0
2014-Jul-17 22:32N 39°01' E 117°46'0 0.0
2014-Jul-17 21:32N 39°01' E 117°46'0 0.0
2014-Jul-17 20:32N 39°01' E 117°46'0 0.0
2014-Jul-17 19:32N 39°01' E 117°46'0 0.0
2014-Jul-17 18:32N 39°01' E 117°46'0 0.0
2014-Jul-17 17:32N 39°01' E 117°46'0 0.0
2014-Jul-17 16:32N 39°01' E 117°46'0 0.0
2014-Jul-17 15:29N 39°01' E 117°46'0 0.0
2014-Jul-17 14:32N 39°01' E 117°46'0 0.0
2014-Jul-17 13:33N 39°01' E 117°46'5 5.0
2014-Jul-17 12:33N 38°58' E 117°51'1110.6
2014-Jul-17 11:33N 38°56' E 118°04'4 4.0
2014-Jul-17 10:33N 38°55' E 118°09'7 6.6
2014-Jul-17 09:33N 38°52' E 118°17'3 2.9
2014-Jul-17 08:33N 38°51' E 118°20'4 4.0
2014-Jul-17 07:33N 38°51' E 118°25'7 7.1
2014-Jul-17 06:33N 38°50' E 118°34'7 6.5
2014-Jul-17 05:33N 38°49' E 118°42'12010.0
2014-Jul-16 17:32N 38°29' E 121°14'1414.1
2014-Jul-16 16:33N 38°22' E 121°30'2713.5
2014-Jul-16 14:33N 38°06' E 121°58'1414.2
2014-Jul-16 13:32N 37°58' E 122°12'3115.3
2014-Jul-16 11:31N 37°38' E 122°43'3114.4
2014-Jul-16 09:21N 37°10' E 123°00'  
2014-Jul-13 10:28N 34°49' E 139°16'1415.3
2014-Jul-13 09:33N 34°57' E 139°30'1616.2
2014-Jul-13 08:33N 35°08' E 139°44'1111.5
2014-Jul-13 07:33N 35°19' E 139°43'9 8.5
2014-Jul-13 06:33N 35°28' E 139°42'0 0.2
2014-Jul-13 05:31N 35°28' E 139°41'0 0.0
2014-Jul-13 04:31N 35°28' E 139°41'0 0.0
2014-Jul-13 03:31N 35°28' E 139°41'0 0.0
2014-Jul-13 02:31N 35°28' E 139°41'0 0.0
2014-Jul-13 01:31N 35°28' E 139°41'0 0.0
2014-Jul-13 00:31N 35°28' E 139°41'2 2.0
2014-Jul-12 23:33N 35°27' E 139°43'9 9.1
2014-Jul-12 22:33N 35°18' E 139°45'1110.7
2014-Jul-12 21:33N 35°07' E 139°45'9 9.4
2014-Jul-12 20:33N 34°58' E 139°42'1110.6
2014-Jul-12 19:33N 34°51' E 139°51'1312.7
2014-Jul-12 18:33N 34°55' E 140°06'1313.3
2014-Jul-12 17:33N 35°01' E 140°20'1212.5
2014-Jul-12 16:33N 35°07' E 140°34'1212.1
2014-Jul-12 15:33N 35°14' E 140°46'1413.6
2014-Jul-12 14:32N 35°27' E 140°52'1414.0
2014-Jul-12 13:33N 35°39' E 140°59'1413.6
2014-Jul-12 12:33N 35°52' E 141°03'1413.5
2014-Jul-12 11:33N 36°05' E 141°09'1414.1
2014-Jul-12 10:33N 36°18' E 141°15'  

Dump ship's entire track history